Time;durP1;ratioP1;P1;durP2;ratioP2;P2;SDS_P1;SDS_P2;PMS_P1;PMS_P2;Temp;Humidity;BMP_temperature;BMP_pressure;BME280_temperature;BME280_humidity;BME280_pressure;Samples;Min_cycle;Max_cycle;Signal;HPM_P1;HPM_P2
2023/04/20 04:46:35;;;;;;;;;;;;;;;8.48;100.00;99362.70;109475;1285;22448;-47
2023/04/20 04:49:04;;;;;;;;;;;;;;;8.49;100.00;99354.67;109558;1281;22565;-46
2023/04/20 04:51:32;;;;;;;;;;;;;;;8.52;100.00;99351.02;109512;1285;22449;-47
2023/04/20 04:54:00;;;;;;;;;;;;;;;8.57;100.00;99349.59;109597;1279;22485;-57
2023/04/20 04:56:29;;;;;;;;;;;;;;;8.60;100.00;99345.05;109587;1280;22427;-47
2023/04/20 04:58:57;;;;;;;;;;;;;;;8.64;100.00;99348.49;109580;1280;22630;-46
2023/04/20 05:01:25;;;;;;;;;;;;;;;8.65;100.00;99346.75;109669;1279;23227;-55
2023/04/20 05:03:53;;;;;;;;;;;;;;;8.66;100.00;99349.17;109504;1280;23686;-58
2023/04/20 05:06:21;;;;;;;;;;;;;;;8.68;100.00;99347.42;109453;1279;22813;-57
2023/04/20 05:08:50;;;;;;;;;;;;;;;8.67;100.00;99350.03;109465;1280;22516;-56
2023/04/20 05:11:19;;;;;;;;;;;;;;;8.66;100.00;99351.96;109503;1281;23224;-55
2023/04/20 05:13:48;;;;;;;;;;;;;;;8.64;100.00;99353.19;109454;1280;22459;-46
2023/04/20 05:16:18;;;;;;;;;;;;;;;8.63;100.00;99353.71;109377;1280;22508;-47
2023/04/20 05:18:48;;;;;;;;;;;;;;;8.64;100.00;99353.89;109428;1280;22489;-47
2023/04/20 05:21:17;;;;;;;;;;;;;;;8.63;100.00;99350.05;109342;1276;22440;-47
2023/04/20 05:23:45;;;;;;;;;;;;;;;8.62;100.00;99351.47;109287;1280;23203;-56
2023/04/20 05:26:14;;;;;;;;;;;;;;;8.61;100.00;99354.25;109139;1280;23453;-46
2023/04/20 05:28:58;;;;;;;;;;;;;;;8.63;100.00;99354.05;109268;1277;22471;-56
2023/04/20 05:31:32;;;;;;;;;;;;;;;8.66;100.00;99354.05;109144;1280;22534;-49
2023/04/20 05:34:01;;;;;;;;;;;;;;;8.69;100.00;99360.27;108969;1270;23375;-56
2023/04/20 05:39:51;;;;;;;;;;;;;;;8.70;100.00;99358.71;108861;1280;22871;-58
2023/04/20 05:42:25;;;;;;;;;;;;;;;8.70;100.00;99357.15;109111;1279;22430;-47
2023/04/20 05:44:53;;;;;;;;;;;;;;;8.69;100.00;99356.45;108969;1280;22458;-62
2023/04/20 05:47:38;;;;;;;;;;;;;;;8.68;100.00;99361.67;108645;1280;22484;-58
2023/04/20 05:50:44;;;;;;;;;;;;;;;8.67;100.00;99357.52;108902;1280;22486;-46
2023/04/20 05:53:38;;;;;;;;;;;;;;;8.67;100.00;99361.67;109086;1279;22488;-54
2023/04/20 05:56:18;;;;;;;;;;;;;;;8.69;100.00;99367.75;109034;1279;22446;-48
2023/04/20 05:58:58;;;;;;;;;;;;;;;8.71;100.00;99369.31;109260;1280;22556;-56
2023/04/20 06:01:35;;;;;;;;;;;;;;;8.73;100.00;99371.37;109419;1279;22522;-60
2023/04/20 06:04:05;;;;;;;;;;;;;;;8.76;100.00;99372.23;108978;1283;22483;-47
2023/04/20 06:06:34;;;;;;;;;;;;;;;8.77;100.00;99368.56;109244;1281;22615;-47
2023/04/20 06:09:03;;;;;;;;;;;;;;;8.77;100.00;99364.56;109354;1278;22480;-58
2023/04/20 06:11:35;;;;;;;;;;;;;;;8.79;100.00;99362.45;109160;1280;22437;-58
2023/04/20 06:14:03;;;;;;;;;;;;;;;8.82;100.00;99364.88;109317;1280;22468;-58
2023/04/20 06:16:34;;;;;;;;;;;;;;;8.86;100.00;99366.42;109021;1278;22865;-58
2023/04/20 06:19:15;;;;;;;;;;;;;;;8.90;100.00;99363.78;108782;1280;22668;-48
2023/04/20 06:22:16;;;;;;;;;;;;;;;8.89;100.00;99362.39;109081;1280;22501;-46
2023/04/20 06:25:15;;;;;;;;;;;;;;;8.88;100.00;99361.19;108977;1280;22553;-47
2023/04/20 06:27:45;;;;;;;;;;;;;;;8.89;100.00;99360.14;109049;1280;23078;-57
2023/04/20 06:30:19;;;;;;;;;;;;;;;8.89;100.00;99358.91;109058;1280;23142;-47
2023/04/20 06:32:48;;;;;;;;;;;;;;;8.88;100.00;99357.19;109210;1280;22725;-54
2023/04/20 06:35:29;;;;;;;;;;;;;;;8.90;100.00;99356.82;109259;1270;23287;-45
2023/04/20 06:37:58;;;;;;;;;;;;;;;8.93;100.00;99361.66;109279;1280;23161;-46
2023/04/20 06:40:26;;;;;;;;;;;;;;;8.94;100.00;99357.30;109311;1280;23329;-55
2023/04/20 06:42:54;;;;;;;;;;;;;;;8.95;100.00;99357.30;109459;1280;22424;-57
2023/04/20 06:45:24;;;;;;;;;;;;;;;8.95;100.00;99355.39;109245;1281;22478;-47
2023/04/20 06:47:57;;;;;;;;;;;;;;;8.95;100.00;99355.21;109386;1283;23311;-46
2023/04/20 06:50:25;;;;;;;;;;;;;;;8.94;100.00;99350.35;109440;1280;22652;-55
2023/04/20 06:52:58;;;;;;;;;;;;;;;8.95;100.00;99350.69;109441;1283;22456;-48
2023/04/20 06:55:31;;;;;;;;;;;;;;;8.97;100.00;99349.10;109174;1279;23225;-47
2023/04/20 06:58:07;;;;;;;;;;;;;;;8.99;100.00;99350.14;109488;1280;22489;-46
2023/04/20 07:00:36;;;;;;;;;;;;;;;9.01;100.00;99349.23;109361;1270;23131;-58
2023/04/20 07:03:11;;;;;;;;;;;;;;;9.05;100.00;99348.35;109115;1280;23740;-47
2023/04/20 07:05:52;;;;;;;;;;;;;;;9.05;100.00;99349.58;108945;1280;22470;-47
2023/04/20 07:08:32;;;;;;;;;;;;;;;9.06;100.00;99344.16;109179;1280;22422;-47
2023/04/20 07:11:31;;;;;;;;;;;;;;;9.04;100.00;99340.52;109168;1280;22435;-47
2023/04/20 07:14:13;;;;;;;;;;;;;;;9.01;100.00;99344.73;109140;1280;23319;-46
2023/04/20 07:16:42;;;;;;;;;;;;;;;9.00;100.00;99336.75;109173;1280;22468;-55
2023/04/20 07:19:22;;;;;;;;;;;;;;;9.01;100.00;99333.76;109347;1280;22461;-46
2023/04/20 07:22:04;;;;;;;;;;;;;;;9.06;100.00;99329.36;109270;1278;22430;-55
2023/04/20 07:24:47;;;;;;;;;;;;;;;9.11;100.00;99321.32;109025;1280;22672;-56
2023/04/20 07:27:18;;;;;;;;;;;;;;;9.14;100.00;99325.46;109097;1280;22464;-47
2023/04/20 07:30:00;;;;;;;;;;;;;;;9.17;100.00;99323.20;109159;1280;23040;-48
2023/04/20 07:32:46;;;;;;;;;;;;;;;9.21;100.00;99322.43;109142;1280;23338;-56
2023/04/20 07:35:18;;;;;;;;;;;;;;;9.23;100.00;99321.04;109438;1279;22517;-48
2023/04/20 07:37:47;;;;;;;;;;;;;;;9.27;100.00;99319.41;109514;1280;22537;-56
2023/04/20 07:40:15;;;;;;;;;;;;;;;9.31;100.00;99321.29;109358;1280;22467;-60
2023/04/20 07:42:44;;;;;;;;;;;;;;;9.36;100.00;99316.90;109429;1280;23777;-47
2023/04/20 07:45:13;;;;;;;;;;;;;;;9.40;100.00;99319.98;109469;1285;22495;-47
2023/04/20 07:47:43;;;;;;;;;;;;;;;9.45;100.00;99318.89;109478;1280;22467;-47
2023/04/20 07:50:12;;;;;;;;;;;;;;;9.48;100.00;99322.15;109392;1280;22457;-57
2023/04/20 07:56:13;;;;;;;;;;;;;;;9.50;100.00;99323.70;109136;1280;22458;-47
2023/04/20 07:58:42;;;;;;;;;;;;;;;9.52;100.00;99323.86;109250;1280;22479;-57
2023/04/20 08:01:16;;;;;;;;;;;;;;;9.54;100.00;99326.95;109024;1280;22453;-56
2023/04/20 08:03:45;;;;;;;;;;;;;;;9.56;100.00;99326.41;109121;1280;23170;-46
2023/04/20 08:06:18;;;;;;;;;;;;;;;9.62;100.00;99324.97;108998;1278;22530;-49
2023/04/20 08:08:49;;;;;;;;;;;;;;;9.69;100.00;99323.13;109184;1280;24175;-47
2023/04/20 08:11:23;;;;;;;;;;;;;;;9.75;100.00;99323.42;109206;1279;23349;-46
2023/04/20 08:14:02;;;;;;;;;;;;;;;9.78;100.00;99326.52;110279;1279;22437;31
2023/04/20 08:16:46;;;;;;;;;;;;;;;9.82;100.00;99326.28;109152;1281;22762;-58
2023/04/20 08:19:26;;;;;;;;;;;;;;;9.83;100.00;99324.19;109195;1281;22458;-56
2023/04/20 08:21:54;;;;;;;;;;;;;;;9.86;100.00;99327.81;109252;1280;22547;-44
2023/04/20 08:24:28;;;;;;;;;;;;;;;9.90;100.00;99323.93;109319;1283;23115;-46
2023/04/20 08:26:58;;;;;;;;;;;;;;;9.92;100.00;99320.42;109297;1279;22435;-55
2023/04/20 08:29:26;;;;;;;;;;;;;;;9.96;100.00;99320.02;109272;1283;22554;-56
2023/04/20 08:31:54;;;;;;;;;;;;;;;10.00;100.00;99319.61;109323;1280;22541;-47
2023/04/20 08:34:23;;;;;;;;;;;;;;;10.05;100.00;99317.64;109435;1280;23625;-47
2023/04/20 08:36:51;;;;;;;;;;;;;;;10.06;100.00;99317.11;109398;1280;22436;-45
2023/04/20 08:39:20;;;;;;;;;;;;;;;10.05;100.00;99319.39;109494;1283;22467;-56
2023/04/20 08:46:01;;;;;;;;;;;;;;;10.06;100.00;99316.75;109038;1280;22702;-47
2023/04/20 08:48:50;;;;;;;;;;;;;;;10.08;100.00;99318.45;109217;1283;22523;-57
2023/04/20 08:51:43;;;;;;;;;;;;;;;10.12;100.00;99312.66;109324;1280;22435;-47
2023/04/20 08:54:35;;;;;;;;;;;;;;;10.17;100.00;99316.08;109028;1280;24217;-58
2023/04/20 08:57:11;;;;;;;;;;;;;;;10.24;100.00;99311.81;109257;1286;22546;-48
2023/04/20 08:59:41;;;;;;;;;;;;;;;10.28;100.00;99310.20;109124;1284;23737;-57
2023/04/20 09:02:32;;;;;;;;;;;;;;;10.31;100.00;99309.28;109082;1280;23190;-58
2023/04/20 09:05:38;;;;;;;;;;;;;;;10.32;100.00;99310.48;109144;1283;23590;-46
2023/04/20 09:08:38;;;;;;;;;;;;;;;10.30;100.00;99313.14;109172;1280;22448;-47
2023/04/20 09:11:27;;;;;;;;;;;;;;;10.25;100.00;99318.27;109056;1280;23079;-57
2023/04/20 09:14:19;;;;;;;;;;;;;;;10.19;100.00;99314.11;109237;1280;22594;-47
2023/04/20 09:16:55;;;;;;;;;;;;;;;10.17;100.00;99315.91;109209;1283;22480;-47
2023/04/20 09:19:25;;;;;;;;;;;;;;;10.18;100.00;99313.46;109391;1280;22471;-48
2023/04/20 09:22:05;;;;;;;;;;;;;;;10.19;100.00;99312.55;109179;1280;22483;-56
2023/04/20 09:24:37;;;;;;;;;;;;;;;10.18;100.00;99311.02;109357;1280;22492;-59
2023/04/20 09:27:14;;;;;;;;;;;;;;;10.18;100.00;99311.53;109498;1287;22570;-46
2023/04/20 09:29:56;;;;;;;;;;;;;;;10.21;100.00;99311.14;109404;1280;22482;-57
2023/04/20 09:32:29;;;;;;;;;;;;;;;10.26;100.00;99304.66;109097;1282;22493;-47
2023/04/20 09:34:58;;;;;;;;;;;;;;;10.29;100.00;99305.49;109147;1280;22449;-56
2023/04/20 09:37:26;;;;;;;;;;;;;;;10.28;100.00;99303.58;109092;1287;22474;-55
2023/04/20 09:39:57;;;;;;;;;;;;;;;10.28;100.00;99305.49;109198;1282;23242;-55
2023/04/20 09:42:26;;;;;;;;;;;;;;;10.32;100.00;99301.79;109045;1287;22457;-46
2023/04/20 09:44:54;;;;;;;;;;;;;;;10.35;100.00;99302.08;109211;1280;22964;-47
2023/04/20 09:47:24;;;;;;;;;;;;;;;10.38;100.00;99300.29;109166;1283;22528;-56
2023/04/20 09:50:00;;;;;;;;;;;;;;;10.43;100.00;99299.17;108888;1287;22826;-54
2023/04/20 09:52:50;;;;;;;;;;;;;;;10.47;100.00;99303.98;109014;1281;22912;-48
2023/04/20 09:55:19;;;;;;;;;;;;;;;10.51;100.00;99303.42;108564;1282;22548;-44
2023/04/20 09:57:51;;;;;;;;;;;;;;;10.55;100.00;99301.97;108647;1286;22552;-46
2023/04/20 10:00:23;;;;;;;;;;;;;;;10.58;100.00;99301.04;108846;1280;22706;-46
2023/04/20 10:02:51;;;;;;;;;;;;;;;10.58;100.00;99301.20;109114;1280;23208;-54
2023/04/20 10:05:31;;;;;;;;;;;;;;;10.58;100.00;99302.42;109207;1287;22538;-56
2023/04/20 10:08:02;;;;;;;;;;;;;;;10.62;100.00;99300.09;109346;1287;22475;-45
2023/04/20 10:10:41;;;;;;;;;;;;;;;10.64;100.00;99300.60;109052;1280;22488;-45
2023/04/20 10:13:09;;;;;;;;;;;;;;;10.64;100.00;99299.38;109344;1280;22446;-46
2023/04/20 10:15:38;;;;;;;;;;;;;;;10.64;100.00;99301.45;109359;1280;22477;-46
2023/04/20 10:18:19;;;;;;;;;;;;;;;10.66;100.00;99298.80;109321;1280;23235;-55
2023/04/20 10:20:51;;;;;;;;;;;;;;;10.69;100.00;99298.41;109093;1277;22485;-46
2023/04/20 10:23:20;;;;;;;;;;;;;;;10.73;100.00;99299.92;109319;1274;23370;-47
2023/04/20 10:25:55;;;;;;;;;;;;;;;10.79;100.00;99304.19;109409;1285;22475;-46
2023/04/20 10:28:23;;;;;;;;;;;;;;;10.84;100.00;99304.27;109299;1287;23205;-45
2023/04/20 10:30:52;;;;;;;;;;;;;;;10.90;100.00;99305.23;109446;1287;23262;-47
2023/04/20 10:33:21;;;;;;;;;;;;;;;10.96;100.00;99304.07;109347;1284;22447;-55
2023/04/20 10:35:50;;;;;;;;;;;;;;;11.00;100.00;99301.39;109363;1286;22971;-46
2023/04/20 10:38:29;;;;;;;;;;;;;;;11.04;100.00;99302.19;109352;1281;23086;-47
2023/04/20 10:41:17;;;;;;;;;;;;;;;11.08;100.00;99300.71;109286;1286;22892;-47
2023/04/20 10:43:45;;;;;;;;;;;;;;;11.14;100.00;99299.04;109215;1279;22475;-46
2023/04/20 10:46:17;;;;;;;;;;;;;;;11.17;100.00;99296.89;109295;1279;22488;-47
2023/04/20 10:49:03;;;;;;;;;;;;;;;11.20;100.00;99300.35;109381;1286;22954;-55
2023/04/20 10:51:31;;;;;;;;;;;;;;;11.25;100.00;99296.22;109354;1286;22448;-47
2023/04/20 10:54:06;;;;;;;;;;;;;;;11.32;100.00;99298.89;109447;1287;23012;-55
2023/04/20 10:56:39;;;;;;;;;;;;;;;11.38;100.00;99294.91;109438;1280;22502;-46
2023/04/20 10:59:10;;;;;;;;;;;;;;;11.42;100.00;99295.55;109106;1283;22459;-46
2023/04/20 11:01:38;;;;;;;;;;;;;;;11.45;100.00;99289.73;109222;1287;23331;-46
2023/04/20 11:04:07;;;;;;;;;;;;;;;11.47;100.00;99294.41;109216;1281;23799;-54
2023/04/20 11:06:39;;;;;;;;;;;;;;;11.45;100.00;99295.14;109202;1287;23346;-47
2023/04/20 11:09:19;;;;;;;;;;;;;;;11.43;100.00;99291.01;109279;1284;23206;-47
2023/04/20 11:12:03;;;;;;;;;;;;;;;11.41;100.00;99292.59;109316;1284;22690;-46
2023/04/20 11:14:32;;;;;;;;;;;;;;;11.42;100.00;99293.63;109353;1280;22530;-45
2023/04/20 11:17:00;;;;;;;;;;;;;;;11.43;100.00;99294.32;109278;1280;22638;-45
2023/04/20 11:19:29;;;;;;;;;;;;;;;11.44;100.00;99295.69;109400;1286;23006;-46
2023/04/20 11:21:58;;;;;;;;;;;;;;;11.46;100.00;99294.06;109442;1280;22459;-53
2023/04/20 11:24:26;;;;;;;;;;;;;;;11.45;100.00;99292.70;109364;1287;229988;-47
2023/04/20 11:26:54;;;;;;;;;;;;;;;11.43;100.00;99291.35;109456;1287;22575;-46
2023/04/20 11:29:26;;;;;;;;;;;;;;;11.43;100.00;99294.14;109532;1280;22444;-45
2023/04/20 11:31:54;;;;;;;;;;;;;;;11.44;100.00;99288.18;109505;1287;22461;-45
2023/04/20 11:34:23;;;;;;;;;;;;;;;11.44;100.00;99291.33;109546;1286;22440;-54
2023/04/20 11:36:51;;;;;;;;;;;;;;;11.42;100.00;99288.04;109491;1287;23407;-54
2023/04/20 11:39:25;;;;;;;;;;;;;;;11.41;100.00;99286.98;109311;1288;22472;-45
2023/04/20 11:41:55;;;;;;;;;;;;;;;11.42;100.00;99286.12;109460;1287;22447;-45
2023/04/20 11:44:24;;;;;;;;;;;;;;;11.44;100.00;99288.52;109435;1287;22874;-45
2023/04/20 11:46:53;;;;;;;;;;;;;;;11.45;100.00;99284.66;109427;1287;23283;-45
2023/04/20 11:49:21;;;;;;;;;;;;;;;11.45;100.00;99287.45;109465;1287;22622;-45
2023/04/20 11:51:50;;;;;;;;;;;;;;;11.46;100.00;99288.31;109466;1287;22456;-54
2023/04/20 11:54:18;;;;;;;;;;;;;;;11.47;100.00;99284.10;109462;1287;22469;-54
2023/04/20 11:56:46;;;;;;;;;;;;;;;11.46;100.00;99282.89;109482;1287;22513;-54
2023/04/20 11:59:15;;;;;;;;;;;;;;;11.45;100.00;99280.13;109570;1287;22430;-54
2023/04/20 12:01:44;;;;;;;;;;;;;;;11.44;100.00;99278.23;109575;1286;22503;-45
2023/04/20 12:04:13;;;;;;;;;;;;;;;11.44;100.00;99277.88;109567;1287;22460;-53
2023/04/20 12:06:42;;;;;;;;;;;;;;;11.45;100.00;99277.69;109631;1286;22443;-53
2023/04/20 12:09:12;;;;;;;;;;;;;;;11.45;100.00;99280.63;109541;1288;22516;-45
2023/04/20 12:11:40;;;;;;;;;;;;;;;11.47;100.00;99277.29;109596;1288;22447;-45
2023/04/20 12:14:08;;;;;;;;;;;;;;;11.51;100.00;99276.88;109572;1288;22455;-45
2023/04/20 12:16:36;;;;;;;;;;;;;;;11.53;100.00;99274.71;109533;1288;23355;-46
2023/04/20 12:19:04;;;;;;;;;;;;;;;11.56;100.00;99271.90;109538;1288;23145;-54
2023/04/20 12:21:32;;;;;;;;;;;;;;;11.57;100.00;99271.86;109561;1284;23186;-53
2023/04/20 12:24:01;;;;;;;;;;;;;;;11.57;100.00;99270.81;109568;1287;22437;-45
2023/04/20 12:26:29;;;;;;;;;;;;;;;11.57;100.00;99270.46;109646;1287;22433;-55
2023/04/20 12:29:05;;;;;;;;;;;;;;;11.57;100.00;99268.18;109661;1286;22838;-46
2023/04/20 12:31:34;;;;;;;;;;;;;;;11.58;100.00;99268.70;109593;1288;22514;-54
2023/04/20 12:34:03;;;;;;;;;;;;;;;11.56;100.00;99271.52;109606;1288;22455;-46
2023/04/20 12:36:31;;;;;;;;;;;;;;;11.55;100.00;99275.23;109620;1280;23149;-46
2023/04/20 12:39:00;;;;;;;;;;;;;;;11.52;100.00;99275.10;109666;1287;22532;-48
2023/04/20 12:41:28;;;;;;;;;;;;;;;11.49;100.00;99274.47;109670;1287;22416;-45
2023/04/20 12:43:56;;;;;;;;;;;;;;;11.44;100.00;99271.76;109638;1287;22445;-46
